sensor_id;sensor_type;location;lat;lon;timestamp;temperature;humidity
10459;DHT22;5277;48.722;8.736;2023-03-01T00:01:10;-0.70;99.90
10459;DHT22;5277;48.722;8.736;2023-03-01T00:03:36;-0.70;99.90
10459;DHT22;5277;48.722;8.736;2023-03-01T00:06:03;-0.70;99.90
10459;DHT22;5277;48.722;8.736;2023-03-01T00:08:29;-0.70;99.90
10459;DHT22;5277;48.722;8.736;2023-03-01T00:11:04;-0.70;99.90
10459;DHT22;5277;48.722;8.736;2023-03-01T00:13:32;-0.70;99.90
10459;DHT22;5277;48.722;8.736;2023-03-01T00:15:58;-0.70;99.90
10459;DHT22;5277;48.722;8.736;2023-03-01T00:18:24;-0.80;99.90
10459;DHT22;5277;48.722;8.736;2023-03-01T00:20:53;-0.90;99.90
10459;DHT22;5277;48.722;8.736;2023-03-01T00:23:20;-0.80;99.90
10459;DHT22;5277;48.722;8.736;2023-03-01T00:25:46;-0.80;99.90
10459;DHT22;5277;48.722;8.736;2023-03-01T00:28:14;-0.90;99.90
10459;DHT22;5277;48.722;8.736;2023-03-01T00:30:40;-0.80;99.90
10459;DHT22;5277;48.722;8.736;2023-03-01T00:33:05;-0.80;99.90
10459;DHT22;5277;48.722;8.736;2023-03-01T00:35:32;-0.90;99.90
10459;DHT22;5277;48.722;8.736;2023-03-01T00:37:58;-0.80;99.90
10459;DHT22;5277;48.722;8.736;2023-03-01T00:40:28;-0.90;99.90
10459;DHT22;5277;48.722;8.736;2023-03-01T00:42:54;-0.90;99.90
10459;DHT22;5277;48.722;8.736;2023-03-01T00:45:23;-0.90;99.90
10459;DHT22;5277;48.722;8.736;2023-03-01T00:47:50;-1.00;99.90
10459;DHT22;5277;48.722;8.736;2023-03-01T00:50:16;-1.00;99.90
10459;DHT22;5277;48.722;8.736;2023-03-01T00:52:45;-0.90;99.90
10459;DHT22;5277;48.722;8.736;2023-03-01T00:55:11;-1.00;99.90
10459;DHT22;5277;48.722;8.736;2023-03-01T00:57:40;-0.90;99.90
10459;DHT22;5277;48.722;8.736;2023-03-01T01:00:06;-1.00;99.90
10459;DHT22;5277;48.722;8.736;2023-03-01T01:02:33;-1.00;99.90
10459;DHT22;5277;48.722;8.736;2023-03-01T01:04:59;-1.00;99.90
10459;DHT22;5277;48.722;8.736;2023-03-01T01:07:25;-1.10;99.90
10459;DHT22;5277;48.722;8.736;2023-03-01T01:09:50;-1.20;99.90
10459;DHT22;5277;48.722;8.736;2023-03-01T01:12:16;-1.10;99.90
10459;DHT22;5277;48.722;8.736;2023-03-01T01:14:42;-1.10;99.90
10459;DHT22;5277;48.722;8.736;2023-03-01T01:17:13;-1.10;99.90
10459;DHT22;5277;48.722;8.736;2023-03-01T01:19:39;-1.10;99.90
10459;DHT22;5277;48.722;8.736;2023-03-01T01:22:04;-1.10;99.90
10459;DHT22;5277;48.722;8.736;2023-03-01T01:24:30;-1.10;99.90
10459;DHT22;5277;48.722;8.736;2023-03-01T01:26:58;-1.10;99.90
10459;DHT22;5277;48.722;8.736;2023-03-01T01:29:24;-1.10;99.90
10459;DHT22;5277;48.722;8.736;2023-03-01T01:31:50;-1.10;99.90
10459;DHT22;5277;48.722;8.736;2023-03-01T01:34:19;-1.20;99.90
10459;DHT22;5277;48.722;8.736;2023-03-01T01:36:52;-1.20;99.90
10459;DHT22;5277;48.722;8.736;2023-03-01T01:39:22;-1.20;99.90
10459;DHT22;5277;48.722;8.736;2023-03-01T01:41:48;-1.20;99.90
10459;DHT22;5277;48.722;8.736;2023-03-01T01:44:23;-1.20;99.90
10459;DHT22;5277;48.722;8.736;2023-03-01T01:46:53;-1.30;99.90
10459;DHT22;5277;48.722;8.736;2023-03-01T01:52:11;-1.30;99.90
10459;DHT22;5277;48.722;8.736;2023-03-01T01:54:46;-1.30;99.90
10459;DHT22;5277;48.722;8.736;2023-03-01T01:57:22;-1.40;99.90
10459;DHT22;5277;48.722;8.736;2023-03-01T01:59:52;-1.30;99.90
10459;DHT22;5277;48.722;8.736;2023-03-01T02:02:18;-1.30;99.90
10459;DHT22;5277;48.722;8.736;2023-03-01T02:04:44;-1.30;99.90
10459;DHT22;5277;48.722;8.736;2023-03-01T02:07:16;-1.40;99.90
10459;DHT22;5277;48.722;8.736;2023-03-01T02:09:46;-1.50;99.90
10459;DHT22;5277;48.722;8.736;2023-03-01T02:12:17;-1.50;99.90
10459;DHT22;5277;48.722;8.736;2023-03-01T02:14:45;-1.70;99.90
10459;DHT22;5277;48.722;8.736;2023-03-01T02:17:13;-1.60;99.90
10459;DHT22;5277;48.722;8.736;2023-03-01T02:22:34;-1.60;99.90
10459;DHT22;5277;48.722;8.736;2023-03-01T02:27:40;-1.50;99.90
10459;DHT22;5277;48.722;8.736;2023-03-01T02:30:10;-1.50;99.90
10459;DHT22;5277;48.722;8.736;2023-03-01T02:32:40;-1.50;99.90
10459;DHT22;5277;48.722;8.736;2023-03-01T02:35:09;-1.50;99.90
10459;DHT22;5277;48.722;8.736;2023-03-01T02:37:37;-1.50;99.90
10459;DHT22;5277;48.722;8.736;2023-03-01T02:40:09;-1.50;99.90
10459;DHT22;5277;48.722;8.736;2023-03-01T02:42:52;-1.40;99.90
10459;DHT22;5277;48.722;8.736;2023-03-01T02:45:19;-1.40;99.90
10459;DHT22;5277;48.722;8.736;2023-03-01T02:47:45;-1.50;99.90
10459;DHT22;5277;48.722;8.736;2023-03-01T02:53:59;-1.50;99.90
10459;DHT22;5277;48.722;8.736;2023-03-01T02:56:28;-1.50;99.90
10459;DHT22;5277;48.722;8.736;2023-03-01T02:58:54;-1.50;99.90
10459;DHT22;5277;48.722;8.736;2023-03-01T03:01:20;-1.50;99.90
10459;DHT22;5277;48.722;8.736;2023-03-01T03:03:46;-1.50;99.90
10459;DHT22;5277;48.722;8.736;2023-03-01T03:06:12;-1.50;99.90
10459;DHT22;5277;48.722;8.736;2023-03-01T03:08:37;-1.50;99.90
10459;DHT22;5277;48.722;8.736;2023-03-01T03:11:03;-1.50;99.90
10459;DHT22;5277;48.722;8.736;2023-03-01T03:13:29;-1.40;99.90
10459;DHT22;5277;48.722;8.736;2023-03-01T03:15:56;-1.40;99.90
10459;DHT22;5277;48.722;8.736;2023-03-01T03:18:23;-1.40;99.90
10459;DHT22;5277;48.722;8.736;2023-03-01T03:20:57;-1.30;99.90
10459;DHT22;5277;48.722;8.736;2023-03-01T03:23:25;-1.30;99.90
10459;DHT22;5277;48.722;8.736;2023-03-01T03:25:51;-1.30;99.90
10459;DHT22;5277;48.722;8.736;2023-03-01T03:28:17;-1.20;99.90
10459;DHT22;5277;48.722;8.736;2023-03-01T03:30:43;-1.20;99.90
10459;DHT22;5277;48.722;8.736;2023-03-01T03:33:10;-1.20;99.90
10459;DHT22;5277;48.722;8.736;2023-03-01T03:35:45;-1.10;99.90
10459;DHT22;5277;48.722;8.736;2023-03-01T03:38:13;-1.10;99.90
10459;DHT22;5277;48.722;8.736;2023-03-01T03:43:17;-1.00;99.90
10459;DHT22;5277;48.722;8.736;2023-03-01T03:45:47;-0.90;99.90
10459;DHT22;5277;48.722;8.736;2023-03-01T03:48:16;-1.00;99.90
10459;DHT22;5277;48.722;8.736;2023-03-01T03:50:50;-0.80;99.90
10459;DHT22;5277;48.722;8.736;2023-03-01T03:53:16;-0.80;99.90
10459;DHT22;5277;48.722;8.736;2023-03-01T03:55:42;-0.80;99.90
10459;DHT22;5277;48.722;8.736;2023-03-01T03:58:08;-0.70;99.90
10459;DHT22;5277;48.722;8.736;2023-03-01T04:00:40;-0.70;99.90
10459;DHT22;5277;48.722;8.736;2023-03-01T04:03:07;-0.70;99.90
10459;DHT22;5277;48.722;8.736;2023-03-01T04:05:34;-0.70;99.90
10459;DHT22;5277;48.722;8.736;2023-03-01T04:08:03;-0.70;99.90
10459;DHT22;5277;48.722;8.736;2023-03-01T04:10:35;-0.60;99.90
10459;DHT22;5277;48.722;8.736;2023-03-01T04:13:03;-0.60;99.90
10459;DHT22;5277;48.722;8.736;2023-03-01T04:15:29;-0.50;99.90
10459;DHT22;5277;48.722;8.736;2023-03-01T04:17:59;-0.50;99.90
10459;DHT22;5277;48.722;8.736;2023-03-01T04:20:27;-0.60;99.90
10459;DHT22;5277;48.722;8.736;2023-03-01T04:25:46;-0.50;99.90
10459;DHT22;5277;48.722;8.736;2023-03-01T04:28:15;-0.50;99.90
10459;DHT22;5277;48.722;8.736;2023-03-01T04:30:41;-0.40;99.90
10459;DHT22;5277;48.722;8.736;2023-03-01T04:33:09;-0.30;99.90
10459;DHT22;5277;48.722;8.736;2023-03-01T04:35:38;-0.30;99.90
10459;DHT22;5277;48.722;8.736;2023-03-01T04:38:07;-0.30;99.90
10459;DHT22;5277;48.722;8.736;2023-03-01T04:40:36;-0.30;99.90
10459;DHT22;5277;48.722;8.736;2023-03-01T04:43:03;-0.30;99.90
10459;DHT22;5277;48.722;8.736;2023-03-01T04:45:31;-0.20;99.90
10459;DHT22;5277;48.722;8.736;2023-03-01T04:48:03;-0.20;99.90
10459;DHT22;5277;48.722;8.736;2023-03-01T04:50:37;-0.20;99.90
10459;DHT22;5277;48.722;8.736;2023-03-01T04:53:03;-0.20;99.90
10459;DHT22;5277;48.722;8.736;2023-03-01T04:55:29;-0.10;99.90
10459;DHT22;5277;48.722;8.736;2023-03-01T04:57:55;-0.10;99.90
10459;DHT22;5277;48.722;8.736;2023-03-01T05:00:21;-0.10;99.90
10459;DHT22;5277;48.722;8.736;2023-03-01T05:02:54;-0.10;99.90
10459;DHT22;5277;48.722;8.736;2023-03-01T05:07:47;0.00;99.90
10459;DHT22;5277;48.722;8.736;2023-03-01T05:10:12;0.00;99.90
10459;DHT22;5277;48.722;8.736;2023-03-01T05:12:38;0.10;99.90
10459;DHT22;5277;48.722;8.736;2023-03-01T05:15:04;0.10;99.90
10459;DHT22;5277;48.722;8.736;2023-03-01T05:17:33;0.10;99.90
10459;DHT22;5277;48.722;8.736;2023-03-01T05:19:59;0.10;99.90
10459;DHT22;5277;48.722;8.736;2023-03-01T05:22:25;0.10;99.90
10459;DHT22;5277;48.722;8.736;2023-03-01T05:24:50;0.20;99.90
10459;DHT22;5277;48.722;8.736;2023-03-01T05:27:16;0.20;99.90
10459;DHT22;5277;48.722;8.736;2023-03-01T05:29:42;0.20;99.90
10459;DHT22;5277;48.722;8.736;2023-03-01T05:32:07;0.30;99.90
10459;DHT22;5277;48.722;8.736;2023-03-01T05:34:35;0.20;99.90
10459;DHT22;5277;48.722;8.736;2023-03-01T05:37:02;0.30;99.90
10459;DHT22;5277;48.722;8.736;2023-03-01T05:39:29;0.30;99.90
10459;DHT22;5277;48.722;8.736;2023-03-01T05:41:57;0.30;99.90
10459;DHT22;5277;48.722;8.736;2023-03-01T05:44:23;0.30;99.90
10459;DHT22;5277;48.722;8.736;2023-03-01T05:46:49;0.40;99.90
10459;DHT22;5277;48.722;8.736;2023-03-01T05:49:15;0.40;99.90
10459;DHT22;5277;48.722;8.736;2023-03-01T05:51:42;0.40;99.90
10459;DHT22;5277;48.722;8.736;2023-03-01T05:54:09;0.40;99.90
10459;DHT22;5277;48.722;8.736;2023-03-01T05:56:36;0.40;99.90
10459;DHT22;5277;48.722;8.736;2023-03-01T05:59:03;0.40;99.90
10459;DHT22;5277;48.722;8.736;2023-03-01T06:01:30;0.40;99.90
10459;DHT22;5277;48.722;8.736;2023-03-01T06:03:56;0.50;99.90
10459;DHT22;5277;48.722;8.736;2023-03-01T06:06:22;0.50;99.90
10459;DHT22;5277;48.722;8.736;2023-03-01T06:08:48;0.60;99.90
10459;DHT22;5277;48.722;8.736;2023-03-01T06:11:13;0.50;99.90
10459;DHT22;5277;48.722;8.736;2023-03-01T06:13:41;0.50;99.90
10459;DHT22;5277;48.722;8.736;2023-03-01T06:16:07;0.50;99.90
10459;DHT22;5277;48.722;8.736;2023-03-01T06:18:33;0.60;99.90
10459;DHT22;5277;48.722;8.736;2023-03-01T06:20:59;0.50;99.90
10459;DHT22;5277;48.722;8.736;2023-03-01T06:23:24;0.50;99.90
10459;DHT22;5277;48.722;8.736;2023-03-01T06:25:50;0.50;99.90
10459;DHT22;5277;48.722;8.736;2023-03-01T06:28:16;0.60;99.90
10459;DHT22;5277;48.722;8.736;2023-03-01T06:30:41;0.60;99.90
10459;DHT22;5277;48.722;8.736;2023-03-01T06:33:07;0.70;99.90
10459;DHT22;5277;48.722;8.736;2023-03-01T06:35:33;0.70;99.90
10459;DHT22;5277;48.722;8.736;2023-03-01T06:38:01;0.70;99.90
10459;DHT22;5277;48.722;8.736;2023-03-01T06:40:28;0.70;99.90
10459;DHT22;5277;48.722;8.736;2023-03-01T06:42:54;0.70;99.90
10459;DHT22;5277;48.722;8.736;2023-03-01T06:45:20;0.70;99.90
10459;DHT22;5277;48.722;8.736;2023-03-01T06:47:46;0.80;99.90
10459;DHT22;5277;48.722;8.736;2023-03-01T06:50:13;0.80;99.90
10459;DHT22;5277;48.722;8.736;2023-03-01T06:52:39;0.80;99.90
10459;DHT22;5277;48.722;8.736;2023-03-01T06:55:05;0.80;99.90
10459;DHT22;5277;48.722;8.736;2023-03-01T06:57:31;0.80;99.90
10459;DHT22;5277;48.722;8.736;2023-03-01T06:59:56;0.80;99.90
10459;DHT22;5277;48.722;8.736;2023-03-01T07:02:22;0.90;99.90
10459;DHT22;5277;48.722;8.736;2023-03-01T07:04:52;0.90;99.90
10459;DHT22;5277;48.722;8.736;2023-03-01T07:07:17;0.90;99.90
10459;DHT22;5277;48.722;8.736;2023-03-01T07:09:44;0.90;99.90
10459;DHT22;5277;48.722;8.736;2023-03-01T07:12:10;0.90;99.90
10459;DHT22;5277;48.722;8.736;2023-03-01T07:14:36;0.90;99.90
10459;DHT22;5277;48.722;8.736;2023-03-01T07:17:02;0.80;99.90
10459;DHT22;5277;48.722;8.736;2023-03-01T07:19:27;0.90;99.90
10459;DHT22;5277;48.722;8.736;2023-03-01T07:21:53;1.00;99.90
10459;DHT22;5277;48.722;8.736;2023-03-01T07:24:19;1.10;99.90
10459;DHT22;5277;48.722;8.736;2023-03-01T07:26:48;1.10;99.90
10459;DHT22;5277;48.722;8.736;2023-03-01T07:29:14;1.20;99.90
10459;DHT22;5277;48.722;8.736;2023-03-01T07:31:40;1.20;99.90
10459;DHT22;5277;48.722;8.736;2023-03-01T07:34:06;1.30;99.90
10459;DHT22;5277;48.722;8.736;2023-03-01T07:36:31;1.30;99.90
10459;DHT22;5277;48.722;8.736;2023-03-01T07:38:57;1.40;99.90
10459;DHT22;5277;48.722;8.736;2023-03-01T07:41:23;1.40;99.90
10459;DHT22;5277;48.722;8.736;2023-03-01T07:43:49;1.50;99.90
10459;DHT22;5277;48.722;8.736;2023-03-01T07:46:15;1.50;99.80
10459;DHT22;5277;48.722;8.736;2023-03-01T07:48:40;1.50;99.20
10459;DHT22;5277;48.722;8.736;2023-03-01T07:51:07;1.60;99.60
10459;DHT22;5277;48.722;8.736;2023-03-01T07:53:33;1.70;99.80
10459;DHT22;5277;48.722;8.736;2023-03-01T07:56:11;1.70;99.40
10459;DHT22;5277;48.722;8.736;2023-03-01T07:58:39;1.70;99.20
10459;DHT22;5277;48.722;8.736;2023-03-01T08:01:07;1.80;99.30
10459;DHT22;5277;48.722;8.736;2023-03-01T08:03:33;1.90;99.00
10459;DHT22;5277;48.722;8.736;2023-03-01T08:06:01;2.00;99.00
10459;DHT22;5277;48.722;8.736;2023-03-01T08:08:27;2.10;99.00
10459;DHT22;5277;48.722;8.736;2023-03-01T08:10:52;2.10;98.80
10459;DHT22;5277;48.722;8.736;2023-03-01T08:13:18;2.20;98.70
10459;DHT22;5277;48.722;8.736;2023-03-01T08:15:51;2.20;98.60
10459;DHT22;5277;48.722;8.736;2023-03-01T08:18:18;2.20;97.90
10459;DHT22;5277;48.722;8.736;2023-03-01T08:20:45;2.30;98.20
10459;DHT22;5277;48.722;8.736;2023-03-01T08:23:11;2.40;97.80
10459;DHT22;5277;48.722;8.736;2023-03-01T08:25:37;2.40;97.90
10459;DHT22;5277;48.722;8.736;2023-03-01T08:28:03;2.40;98.00
10459;DHT22;5277;48.722;8.736;2023-03-01T08:30:29;2.40;97.10
10459;DHT22;5277;48.722;8.736;2023-03-01T08:32:55;2.50;97.60
10459;DHT22;5277;48.722;8.736;2023-03-01T08:35:21;2.60;97.30
10459;DHT22;5277;48.722;8.736;2023-03-01T08:37:47;2.60;97.00
10459;DHT22;5277;48.722;8.736;2023-03-01T08:40:13;2.60;97.20
10459;DHT22;5277;48.722;8.736;2023-03-01T08:42:42;2.80;97.60
10459;DHT22;5277;48.722;8.736;2023-03-01T08:45:09;2.90;97.20
10459;DHT22;5277;48.722;8.736;2023-03-01T08:47:35;2.90;97.00
10459;DHT22;5277;48.722;8.736;2023-03-01T08:50:01;3.00;97.20
10459;DHT22;5277;48.722;8.736;2023-03-01T08:52:27;3.10;96.60
10459;DHT22;5277;48.722;8.736;2023-03-01T08:54:53;3.10;96.80
10459;DHT22;5277;48.722;8.736;2023-03-01T08:57:19;3.20;95.90
10459;DHT22;5277;48.722;8.736;2023-03-01T08:59:44;3.20;96.30
10459;DHT22;5277;48.722;8.736;2023-03-01T09:02:15;3.30;95.70
10459;DHT22;5277;48.722;8.736;2023-03-01T09:04:41;3.40;95.50
10459;DHT22;5277;48.722;8.736;2023-03-01T09:07:07;3.50;95.30
10459;DHT22;5277;48.722;8.736;2023-03-01T09:09:33;3.50;94.80
10459;DHT22;5277;48.722;8.736;2023-03-01T09:11:59;3.60;95.40
10459;DHT22;5277;48.722;8.736;2023-03-01T09:14:24;3.60;94.90
10459;DHT22;5277;48.722;8.736;2023-03-01T09:16:50;3.70;95.00
10459;DHT22;5277;48.722;8.736;2023-03-01T09:19:16;3.80;94.90
10459;DHT22;5277;48.722;8.736;2023-03-01T09:21:42;3.90;94.40
10459;DHT22;5277;48.722;8.736;2023-03-01T09:24:18;3.90;94.40
10459;DHT22;5277;48.722;8.736;2023-03-01T09:26:44;4.10;94.50
10459;DHT22;5277;48.722;8.736;2023-03-01T09:29:12;4.20;93.80
10459;DHT22;5277;48.722;8.736;2023-03-01T09:31:38;4.20;93.40
10459;DHT22;5277;48.722;8.736;2023-03-01T09:34:04;4.20;93.60
10459;DHT22;5277;48.722;8.736;2023-03-01T09:36:30;4.30;93.80
10459;DHT22;5277;48.722;8.736;2023-03-01T09:38:57;4.40;93.40
10459;DHT22;5277;48.722;8.736;2023-03-01T09:41:47;4.50;93.20
10459;DHT22;5277;48.722;8.736;2023-03-01T09:47:01;4.80;92.40
10459;DHT22;5277;48.722;8.736;2023-03-01T09:49:33;4.80;93.20
10459;DHT22;5277;48.722;8.736;2023-03-01T09:54:55;4.80;91.60
10459;DHT22;5277;48.722;8.736;2023-03-01T09:57:43;4.80;92.30
10459;DHT22;5277;48.722;8.736;2023-03-01T10:00:35;4.90;92.40
10459;DHT22;5277;48.722;8.736;2023-03-01T10:03:16;4.90;91.50
10459;DHT22;5277;48.722;8.736;2023-03-01T10:06:04;4.70;91.70
10459;DHT22;5277;48.722;8.736;2023-03-01T10:08:49;4.80;92.10
10459;DHT22;5277;48.722;8.736;2023-03-01T10:11:46;4.90;92.20
10459;DHT22;5277;48.722;8.736;2023-03-01T10:14:15;5.00;92.40
10459;DHT22;5277;48.722;8.736;2023-03-01T10:17:03;5.20;91.60
10459;DHT22;5277;48.722;8.736;2023-03-01T10:22:04;5.20;91.50
10459;DHT22;5277;48.722;8.736;2023-03-01T10:24:34;5.30;91.60
10459;DHT22;5277;48.722;8.736;2023-03-01T10:27:17;5.30;91.10
10459;DHT22;5277;48.722;8.736;2023-03-01T10:32:29;5.40;90.80
10459;DHT22;5277;48.722;8.736;2023-03-01T10:34:55;5.40;90.60
10459;DHT22;5277;48.722;8.736;2023-03-01T10:37:22;5.40;91.50
10459;DHT22;5277;48.722;8.736;2023-03-01T10:39:58;5.60;90.50
10459;DHT22;5277;48.722;8.736;2023-03-01T10:42:34;5.70;90.70
10459;DHT22;5277;48.722;8.736;2023-03-01T10:48:12;5.80;90.00
10459;DHT22;5277;48.722;8.736;2023-03-01T10:50:43;5.90;89.10
10459;DHT22;5277;48.722;8.736;2023-03-01T10:56:02;6.10;90.20
10459;DHT22;5277;48.722;8.736;2023-03-01T10:58:29;6.10;88.80
10459;DHT22;5277;48.722;8.736;2023-03-01T11:01:45;6.20;89.00
10459;DHT22;5277;48.722;8.736;2023-03-01T11:06:31;6.30;87.20
10459;DHT22;5277;48.722;8.736;2023-03-01T11:08:57;6.50;87.00
10459;DHT22;5277;48.722;8.736;2023-03-01T11:11:38;6.50;87.50
10459;DHT22;5277;48.722;8.736;2023-03-01T11:16:42;6.50;85.80
10459;DHT22;5277;48.722;8.736;2023-03-01T11:21:39;6.40;87.40
10459;DHT22;5277;48.722;8.736;2023-03-01T11:24:09;6.40;88.10
10459;DHT22;5277;48.722;8.736;2023-03-01T11:26:39;6.30;86.50
10459;DHT22;5277;48.722;8.736;2023-03-01T11:29:31;6.30;86.50
10459;DHT22;5277;48.722;8.736;2023-03-01T11:32:01;6.30;87.40
10459;DHT22;5277;48.722;8.736;2023-03-01T11:34:43;6.40;87.20
10459;DHT22;5277;48.722;8.736;2023-03-01T11:37:21;6.30;86.20
10459;DHT22;5277;48.722;8.736;2023-03-01T11:50:46;6.30;86.70
10459;DHT22;5277;48.722;8.736;2023-03-01T12:04:02;6.30;87.50
10459;DHT22;5277;48.722;8.736;2023-03-01T12:06:47;6.40;87.50
10459;DHT22;5277;48.722;8.736;2023-03-01T12:18:23;6.50;85.70
10459;DHT22;5277;48.722;8.736;2023-03-01T12:24:04;6.40;86.00
10459;DHT22;5277;48.722;8.736;2023-03-01T12:26:42;6.40;86.00
10459;DHT22;5277;48.722;8.736;2023-03-01T12:32:12;6.40;87.20
10459;DHT22;5277;48.722;8.736;2023-03-01T12:34:59;6.30;85.80
10459;DHT22;5277;48.722;8.736;2023-03-01T12:40:38;6.40;85.90
10459;DHT22;5277;48.722;8.736;2023-03-01T12:43:33;6.40;86.40
10459;DHT22;5277;48.722;8.736;2023-03-01T12:46:21;6.40;88.00
10459;DHT22;5277;48.722;8.736;2023-03-01T12:49:18;6.40;86.60
10459;DHT22;5277;48.722;8.736;2023-03-01T12:52:38;6.50;86.50
10459;DHT22;5277;48.722;8.736;2023-03-01T12:54:37;6.50;87.30
10459;DHT22;5277;48.722;8.736;2023-03-01T13:02:41;6.10;86.10
10459;DHT22;5277;48.722;8.736;2023-03-01T13:07:58;6.00;87.90
10459;DHT22;5277;48.722;8.736;2023-03-01T13:10:34;6.00;87.20
10459;DHT22;5277;48.722;8.736;2023-03-01T13:15:37;6.10;87.70
10459;DHT22;5277;48.722;8.736;2023-03-01T13:20:47;6.00;87.90
10459;DHT22;5277;48.722;8.736;2023-03-01T13:26:02;6.10;88.50
10459;DHT22;5277;48.722;8.736;2023-03-01T13:28:38;6.10;87.70
10459;DHT22;5277;48.722;8.736;2023-03-01T13:33:59;6.10;89.30
10459;DHT22;5277;48.722;8.736;2023-03-01T13:38:59;6.10;87.30
10459;DHT22;5277;48.722;8.736;2023-03-01T13:46:48;6.00;88.10
10459;DHT22;5277;48.722;8.736;2023-03-01T13:49:19;6.00;89.20
10459;DHT22;5277;48.722;8.736;2023-03-01T13:51:51;6.10;89.30
10459;DHT22;5277;48.722;8.736;2023-03-01T13:54:28;6.00;89.00
10459;DHT22;5277;48.722;8.736;2023-03-01T13:56:55;6.00;90.00
10459;DHT22;5277;48.722;8.736;2023-03-01T13:59:22;6.00;88.40
10459;DHT22;5277;48.722;8.736;2023-03-01T14:01:59;6.00;88.50
10459;DHT22;5277;48.722;8.736;2023-03-01T14:04:31;6.00;89.00
10459;DHT22;5277;48.722;8.736;2023-03-01T14:07:19;6.10;89.30
10459;DHT22;5277;48.722;8.736;2023-03-01T14:09:50;6.10;90.00
10459;DHT22;5277;48.722;8.736;2023-03-01T14:12:39;6.20;90.60
10459;DHT22;5277;48.722;8.736;2023-03-01T14:15:29;6.20;90.00
10459;DHT22;5277;48.722;8.736;2023-03-01T14:20:32;6.20;87.80
10459;DHT22;5277;48.722;8.736;2023-03-01T14:23:07;6.20;89.40
10459;DHT22;5277;48.722;8.736;2023-03-01T14:25:35;6.10;90.10
10459;DHT22;5277;48.722;8.736;2023-03-01T14:30:41;6.10;90.40
10459;DHT22;5277;48.722;8.736;2023-03-01T14:33:28;6.10;90.00
10459;DHT22;5277;48.722;8.736;2023-03-01T14:38:28;6.00;90.20
10459;DHT22;5277;48.722;8.736;2023-03-01T14:40:58;6.00;90.20
10459;DHT22;5277;48.722;8.736;2023-03-01T14:43:24;5.90;90.40
10459;DHT22;5277;48.722;8.736;2023-03-01T14:45:53;6.00;91.10
10459;DHT22;5277;48.722;8.736;2023-03-01T14:48:19;6.00;90.60
10459;DHT22;5277;48.722;8.736;2023-03-01T14:50:45;6.00;90.90
10459;DHT22;5277;48.722;8.736;2023-03-01T14:53:22;6.00;91.00
10459;DHT22;5277;48.722;8.736;2023-03-01T14:55:51;6.00;91.30
10459;DHT22;5277;48.722;8.736;2023-03-01T14:58:21;5.90;91.20
10459;DHT22;5277;48.722;8.736;2023-03-01T15:03:36;5.90;91.30
10459;DHT22;5277;48.722;8.736;2023-03-01T15:06:05;5.90;92.00
10459;DHT22;5277;48.722;8.736;2023-03-01T15:08:31;5.80;91.80
10459;DHT22;5277;48.722;8.736;2023-03-01T15:11:22;5.80;92.50
10459;DHT22;5277;48.722;8.736;2023-03-01T15:13:50;5.80;92.20
10459;DHT22;5277;48.722;8.736;2023-03-01T15:16:30;5.80;91.40
10459;DHT22;5277;48.722;8.736;2023-03-01T15:19:03;5.80;91.90
10459;DHT22;5277;48.722;8.736;2023-03-01T15:21:32;5.80;91.80
10459;DHT22;5277;48.722;8.736;2023-03-01T15:26:44;5.70;92.00
10459;DHT22;5277;48.722;8.736;2023-03-01T15:29:32;5.70;92.00
10459;DHT22;5277;48.722;8.736;2023-03-01T15:32:04;5.70;92.10
10459;DHT22;5277;48.722;8.736;2023-03-01T15:34:36;5.70;92.10
10459;DHT22;5277;48.722;8.736;2023-03-01T15:37:46;5.70;91.90
10459;DHT22;5277;48.722;8.736;2023-03-01T15:40:26;5.70;91.20
10459;DHT22;5277;48.722;8.736;2023-03-01T15:43:04;5.70;91.90
10459;DHT22;5277;48.722;8.736;2023-03-01T15:45:32;5.70;91.80
10459;DHT22;5277;48.722;8.736;2023-03-01T15:48:15;5.70;91.40
10459;DHT22;5277;48.722;8.736;2023-03-01T15:50:42;5.70;92.10
10459;DHT22;5277;48.722;8.736;2023-03-01T15:53:13;5.70;92.40
10459;DHT22;5277;48.722;8.736;2023-03-01T15:55:40;5.60;92.40
10459;DHT22;5277;48.722;8.736;2023-03-01T15:58:10;5.60;92.00
10459;DHT22;5277;48.722;8.736;2023-03-01T16:00:37;5.60;92.30
10459;DHT22;5277;48.722;8.736;2023-03-01T16:03:04;5.60;91.90
10459;DHT22;5277;48.722;8.736;2023-03-01T16:05:32;5.60;92.60
10459;DHT22;5277;48.722;8.736;2023-03-01T16:07:58;5.60;92.30
10459;DHT22;5277;48.722;8.736;2023-03-01T16:10:24;5.50;92.20
10459;DHT22;5277;48.722;8.736;2023-03-01T16:12:51;5.50;92.60
10459;DHT22;5277;48.722;8.736;2023-03-01T16:15:26;5.50;92.90
10459;DHT22;5277;48.722;8.736;2023-03-01T16:17:53;5.40;93.00
10459;DHT22;5277;48.722;8.736;2023-03-01T16:20:19;5.30;92.50
10459;DHT22;5277;48.722;8.736;2023-03-01T16:22:45;5.20;93.00
10459;DHT22;5277;48.722;8.736;2023-03-01T16:25:13;5.10;93.20
10459;DHT22;5277;48.722;8.736;2023-03-01T16:27:42;5.10;93.50
10459;DHT22;5277;48.722;8.736;2023-03-01T16:30:08;5.10;93.20
10459;DHT22;5277;48.722;8.736;2023-03-01T16:32:41;5.10;93.40
10459;DHT22;5277;48.722;8.736;2023-03-01T16:35:08;5.00;93.50
10459;DHT22;5277;48.722;8.736;2023-03-01T16:37:35;4.90;93.40
10459;DHT22;5277;48.722;8.736;2023-03-01T16:40:02;4.90;94.10
10459;DHT22;5277;48.722;8.736;2023-03-01T16:42:33;4.90;93.40
10459;DHT22;5277;48.722;8.736;2023-03-01T16:44:59;4.90;93.60
10459;DHT22;5277;48.722;8.736;2023-03-01T16:47:24;4.80;93.70
10459;DHT22;5277;48.722;8.736;2023-03-01T16:49:53;4.70;93.60
10459;DHT22;5277;48.722;8.736;2023-03-01T16:52:20;4.60;94.00
10459;DHT22;5277;48.722;8.736;2023-03-01T16:54:46;4.50;94.30
10459;DHT22;5277;48.722;8.736;2023-03-01T16:57:12;4.40;94.30
10459;DHT22;5277;48.722;8.736;2023-03-01T16:59:37;4.20;94.60
10459;DHT22;5277;48.722;8.736;2023-03-01T17:02:09;4.10;94.60
10459;DHT22;5277;48.722;8.736;2023-03-01T17:04:36;4.10;94.90
10459;DHT22;5277;48.722;8.736;2023-03-01T17:07:02;4.10;94.70
10459;DHT22;5277;48.722;8.736;2023-03-01T17:09:28;4.10;94.90
10459;DHT22;5277;48.722;8.736;2023-03-01T17:11:53;3.90;95.10
10459;DHT22;5277;48.722;8.736;2023-03-01T17:14:19;3.80;95.00
10459;DHT22;5277;48.722;8.736;2023-03-01T17:16:45;3.80;95.20
10459;DHT22;5277;48.722;8.736;2023-03-01T17:19:11;3.70;95.50
10459;DHT22;5277;48.722;8.736;2023-03-01T17:21:43;3.70;95.20
10459;DHT22;5277;48.722;8.736;2023-03-01T17:24:08;3.60;95.50
10459;DHT22;5277;48.722;8.736;2023-03-01T17:26:34;3.60;95.60
10459;DHT22;5277;48.722;8.736;2023-03-01T17:29:00;3.50;95.40
10459;DHT22;5277;48.722;8.736;2023-03-01T17:31:26;3.50;95.90
10459;DHT22;5277;48.722;8.736;2023-03-01T17:33:52;3.40;95.70
10459;DHT22;5277;48.722;8.736;2023-03-01T17:36:18;3.40;95.70
10459;DHT22;5277;48.722;8.736;2023-03-01T17:38:43;3.30;95.90
10459;DHT22;5277;48.722;8.736;2023-03-01T17:41:10;3.30;95.90
10459;DHT22;5277;48.722;8.736;2023-03-01T17:43:36;3.20;96.00
10459;DHT22;5277;48.722;8.736;2023-03-01T17:46:02;3.20;96.00
10459;DHT22;5277;48.722;8.736;2023-03-01T17:48:28;3.20;96.00
10459;DHT22;5277;48.722;8.736;2023-03-01T17:50:54;3.20;96.00
10459;DHT22;5277;48.722;8.736;2023-03-01T17:53:20;3.10;95.80
10459;DHT22;5277;48.722;8.736;2023-03-01T17:55:46;3.10;96.00
10459;DHT22;5277;48.722;8.736;2023-03-01T17:58:16;3.10;95.90
10459;DHT22;5277;48.722;8.736;2023-03-01T18:00:47;3.00;96.20
10459;DHT22;5277;48.722;8.736;2023-03-01T18:03:13;3.00;96.10
10459;DHT22;5277;48.722;8.736;2023-03-01T18:05:39;2.90;96.10
10459;DHT22;5277;48.722;8.736;2023-03-01T18:08:05;2.70;96.50
10459;DHT22;5277;48.722;8.736;2023-03-01T18:10:32;2.60;96.90
10459;DHT22;5277;48.722;8.736;2023-03-01T18:13:01;2.60;96.60
10459;DHT22;5277;48.722;8.736;2023-03-01T18:15:26;2.60;97.10